Aérodrome :
LOGIN :

S'inscrire | Disclaimer

   EN    FR    IT 

 










Légende :    VFR   VFR Marginal   IFR   IFR Intensif   IFR Très Intensif
Visi : 
Plafond : 
>= 8 km
>= 3000ft
5 à 8 km
1000 à 3000 ft
1500m à 5 km
500 à 1000 ft
800 à 1500m
200 à 500 ft
< 800m
< 200 ft
Symboles :   Orages  Brouillard  Fortes neiges  Fortes précipitations  Vent > 20 kt
SIGMETs :   Divers  Orages  Givrage  Turbulence  Onde Orograph.  Cendres Volcan.







- Altitude de l'aérodrome : 17 ft
- Code IATA : MPL
- Voir les cartes d'approche


LFMT - Montpellier Méditerranée

DERNIER METAR :
  • 212230Z AUTO 31008KT CAVOK 24/11 Q1013 NOSIG

METARs EXPIRÉS :
  • 212200Z AUTO 32008KT CAVOK 24/11 Q1013 NOSIG
  • 212130Z AUTO 32008KT CAVOK 24/11 Q1013 NOSIG
  • 212100Z AUTO 32009KT CAVOK 24/11 Q1013 NOSIG
  • 212030Z AUTO 31009KT CAVOK 25/11 Q1013 NOSIG
  • 212000Z AUTO 30010KT CAVOK 25/11 Q1012 NOSIG

TAF TAF LFMT
Valide du 21 à 21h jusqu'au 22 à 21h UTC


212000Z 2121/2221 31012KT CAVOK
BECMG 2210/2212 21012KT
PROB30
TEMPO 2213/2217 21020G30KT FEW050TCU
BECMG 2218/2220 33010KT
ATIS : +33 4 67 13 11 70
Pas de NOTAMs connus pour ce terrain.



MET'MAP, la Météo Aéronautique d'un coup d'oeil ! - Copyright ORBIFLY Décembre 2007 - Disclaimer

ORBIFLY MET'MAP TEAM :

Programmation & Développement : Alexandra Zaïnal
Conception & Développement : Baudouin d'Aumeries
Co-Programmation & Développement : Marc-Olivier Méhu
Soutien technique & logistique : Manuel Goepfert

Contact : metmap@orbifly.com




SOURCES & CREDITS :

   NOAA